createdAt,value
2019-03-21T00:01:31.121Z,6.42
2019-03-21T00:04:02.801Z,5.75
2019-03-21T00:06:31.205Z,7.03
2019-03-21T00:08:59.780Z,6.97
2019-03-21T00:12:02.277Z,5.58
2019-03-21T00:14:52.201Z,5.47
2019-03-21T00:17:29.921Z,4.85
2019-03-21T00:19:58.313Z,7.30
2019-03-21T00:22:26.729Z,5.20
2019-03-21T00:24:57.047Z,6.72
2019-03-21T00:27:25.143Z,5.05
2019-03-21T00:29:53.561Z,5.45
2019-03-21T00:32:21.987Z,5.17
2019-03-21T00:34:50.400Z,5.60
2019-03-21T00:37:19.114Z,5.10
2019-03-21T00:39:47.493Z,5.58
2019-03-21T00:42:15.968Z,5.87
2019-03-21T00:44:44.343Z,6.75
2019-03-21T00:47:12.924Z,4.70
2019-03-21T00:49:41.317Z,6.13
2019-03-21T00:52:09.721Z,5.12
2019-03-21T00:54:38.101Z,6.12
2019-03-21T00:57:06.535Z,5.50
2019-03-21T00:59:34.941Z,6.33
2019-03-21T01:02:03.321Z,5.65
2019-03-21T01:04:31.791Z,5.87
2019-03-21T01:07:00.200Z,6.83
2019-03-21T01:09:28.609Z,5.25
2019-03-21T01:11:57.067Z,6.22
2019-03-21T01:14:29.697Z,8.50
2019-03-21T01:16:55.639Z,5.65
2019-03-21T01:19:24.038Z,6.70
2019-03-21T01:21:52.479Z,7.83
2019-03-21T01:24:20.882Z,7.58
2019-03-21T01:26:49.268Z,7.78
2019-03-21T01:29:17.640Z,6.67
2019-03-21T01:31:46.056Z,7.50
2019-03-21T01:34:15.025Z,8.28
2019-03-21T01:36:43.454Z,6.60
2019-03-21T01:39:11.840Z,6.65
2019-03-21T01:41:40.313Z,7.30
2019-03-21T01:44:08.700Z,6.28
2019-03-21T01:46:37.095Z,6.97
2019-03-21T01:49:05.484Z,6.80
2019-03-21T01:51:33.944Z,5.40
2019-03-21T01:54:02.396Z,6.62
2019-03-21T01:56:31.352Z,6.15
2019-03-21T01:58:59.736Z,5.20
2019-03-21T02:01:28.157Z,4.05
2019-03-21T02:03:56.615Z,5.10
2019-03-21T02:06:25.071Z,5.42
2019-03-21T02:08:53.588Z,5.50
2019-03-21T02:11:22.040Z,6.35
2019-03-21T02:13:50.454Z,5.22
2019-03-21T02:16:18.828Z,5.25
2019-03-21T02:18:47.260Z,5.78
2019-03-21T02:21:15.648Z,4.90
2019-03-21T02:23:44.021Z,5.80
2019-03-21T02:26:12.485Z,5.95
2019-03-21T02:28:40.976Z,5.87
2019-03-21T02:31:09.837Z,4.62
2019-03-21T02:33:44.134Z,6.03
2019-03-21T02:36:13.983Z,5.80
2019-03-21T02:38:42.458Z,5.00
2019-03-21T02:41:16.001Z,5.20
2019-03-21T02:43:44.402Z,6.55
2019-03-21T02:46:12.772Z,5.97
2019-03-21T02:48:41.156Z,5.85
2019-03-21T02:51:09.543Z,5.45
2019-03-21T02:53:37.950Z,6.03
2019-03-21T02:56:10.070Z,4.85
2019-03-21T02:58:38.455Z,5.26
2019-03-21T03:01:06.843Z,5.20
2019-03-21T03:03:36.129Z,5.00
2019-03-21T03:06:04.452Z,5.28
2019-03-21T03:08:32.904Z,5.35
2019-03-21T03:11:04.773Z,5.60
2019-03-21T03:13:33.240Z,5.80
2019-03-21T03:16:01.611Z,5.12
2019-03-21T03:18:29.992Z,5.80
2019-03-21T03:20:58.388Z,5.53
2019-03-21T03:23:26.683Z,5.47
2019-03-21T03:25:55.046Z,4.72
2019-03-21T03:28:26.234Z,5.42
2019-03-21T03:30:57.103Z,6.42
2019-03-21T03:33:25.469Z,5.20
2019-03-21T03:35:55.471Z,4.62
2019-03-21T03:38:23.943Z,5.62
2019-03-21T03:41:03.591Z,6.03
2019-03-21T03:43:31.992Z,5.00
2019-03-21T03:46:00.387Z,5.17
2019-03-21T03:48:28.975Z,5.83
2019-03-21T03:50:57.376Z,5.25
2019-03-21T03:53:25.985Z,4.30
2019-03-21T03:55:54.384Z,4.12
2019-03-21T03:58:25.666Z,3.92
2019-03-21T04:00:54.046Z,4.93
2019-03-21T04:03:22.487Z,4.10
2019-03-21T04:05:50.897Z,3.97
2019-03-21T04:08:19.363Z,3.92
2019-03-21T04:10:49.166Z,4.45
2019-03-21T04:13:17.581Z,4.62
2019-03-21T04:15:53.191Z,4.83
2019-03-21T04:18:18.897Z,5.47
2019-03-21T04:20:50.426Z,4.37
2019-03-21T04:23:21.612Z,5.67
2019-03-21T04:26:04.927Z,6.60
2019-03-21T04:28:33.365Z,5.80
2019-03-21T04:31:01.743Z,6.67
2019-03-21T04:33:30.365Z,6.30
2019-03-21T04:35:58.734Z,6.60
2019-03-21T04:38:27.184Z,6.37
2019-03-21T04:40:55.550Z,7.17
2019-03-21T04:43:23.940Z,7.33
2019-03-21T04:46:02.627Z,7.40
2019-03-21T04:48:22.402Z,6.42
2019-03-21T04:50:50.786Z,6.65
2019-03-21T04:53:19.178Z,7.97
2019-03-21T04:55:47.547Z,6.92
2019-03-21T04:58:15.934Z,5.97
2019-03-21T05:00:50.103Z,5.30
2019-03-21T05:03:20.734Z,5.85
2019-03-21T05:05:49.315Z,5.70
2019-03-21T05:08:17.684Z,5.83
2019-03-21T05:10:46.032Z,5.35
2019-03-21T05:13:14.423Z,4.90
2019-03-21T05:15:46.846Z,4.90
2019-03-21T05:18:27.303Z,4.47
2019-03-21T05:20:55.725Z,4.23
2019-03-21T05:23:24.158Z,4.90
2019-03-21T05:25:52.499Z,4.87
2019-03-21T05:28:20.886Z,4.10
2019-03-21T05:30:52.680Z,4.62
2019-03-21T05:33:21.189Z,4.62
2019-03-21T05:35:49.676Z,4.08
2019-03-21T05:38:19.969Z,4.00
2019-03-21T05:40:48.356Z,4.42
2019-03-21T05:43:22.978Z,5.30
2019-03-21T05:45:51.358Z,5.20
2019-03-21T05:48:19.782Z,5.07
2019-03-21T05:50:48.134Z,3.95
2019-03-21T05:53:16.587Z,3.60
2019-03-21T05:55:45.024Z,3.75
2019-03-21T05:58:14.087Z,3.27
2019-03-21T06:00:45.662Z,2.65
2019-03-21T06:03:26.377Z,3.15
2019-03-21T06:05:58.051Z,2.98
2019-03-21T06:08:32.401Z,2.20
2019-03-21T06:11:00.740Z,2.58
2019-03-21T06:13:30.045Z,2.10
2019-03-21T06:16:05.769Z,2.45
2019-03-21T06:18:52.833Z,2.30
2019-03-21T06:21:36.429Z,2.83
2019-03-21T06:24:19.647Z,2.65
2019-03-21T06:26:53.961Z,2.90
2019-03-21T06:29:22.346Z,2.72
2019-03-21T06:31:50.758Z,3.10
2019-03-21T06:34:19.265Z,3.40
2019-03-21T06:36:47.620Z,3.55
2019-03-21T06:39:16.002Z,3.92
2019-03-21T06:41:44.390Z,3.60
2019-03-21T06:44:12.834Z,4.40
2019-03-21T06:46:49.348Z,3.83
2019-03-21T06:49:11.238Z,4.40
2019-03-21T06:51:39.606Z,4.83
2019-03-21T06:54:08.076Z,5.35
2019-03-21T06:56:36.462Z,6.17
2019-03-21T06:59:04.841Z,5.83
2019-03-21T07:01:33.200Z,6.83
2019-03-21T07:04:06.919Z,6.70
2019-03-21T07:06:31.626Z,4.70
2019-03-21T07:09:00.008Z,8.90
2019-03-21T07:11:28.415Z,8.08
2019-03-21T07:13:56.854Z,8.28
2019-03-21T07:16:25.616Z,9.18
2019-03-21T07:18:54.025Z,8.28
2019-03-21T07:21:22.445Z,9.18
2019-03-21T07:23:50.805Z,5.92
2019-03-21T07:26:19.197Z,9.10
2019-03-21T07:28:47.588Z,9.43
2019-03-21T07:31:15.986Z,11.20
2019-03-21T07:33:44.274Z,11.93
2019-03-21T07:36:12.670Z,10.00
2019-03-21T07:38:41.066Z,11.00
2019-03-21T07:41:09.386Z,12.17
2019-03-21T07:43:37.811Z,11.70
2019-03-21T07:46:06.173Z,12.10
2019-03-21T07:48:34.475Z,11.97
2019-03-21T07:51:03.059Z,13.34
2019-03-21T07:53:31.501Z,12.95
2019-03-21T07:55:59.965Z,12.58
2019-03-21T07:58:28.354Z,14.18
2019-03-21T08:00:56.738Z,13.20
2019-03-21T08:03:25.111Z,11.78
2019-03-21T08:05:53.593Z,10.93
2019-03-21T08:08:21.901Z,13.10
2019-03-21T08:10:50.292Z,11.33
2019-03-21T08:13:18.711Z,11.95
2019-03-21T08:15:47.054Z,12.45
2019-03-21T08:18:15.376Z,11.40
2019-03-21T08:20:51.895Z,11.00
2019-03-21T08:23:13.880Z,13.38
2019-03-21T08:25:42.246Z,11.53
2019-03-21T08:28:10.607Z,10.28
2019-03-21T08:30:58.770Z,12.33
2019-03-21T08:33:27.144Z,7.50
2019-03-21T08:35:55.602Z,12.75
2019-03-21T08:38:24.042Z,13.62
2019-03-21T08:40:52.520Z,9.97
2019-03-21T08:43:20.944Z,12.55
2019-03-21T08:45:50.133Z,10.85
2019-03-21T08:48:18.534Z,12.00
2019-03-21T08:50:46.901Z,11.50
2019-03-21T08:53:15.205Z,12.23
2019-03-21T08:55:43.664Z,12.20
2019-03-21T08:58:12.045Z,11.22
2019-03-21T09:00:40.433Z,11.68
2019-03-21T09:03:09.065Z,12.03
2019-03-21T09:05:37.397Z,10.63
2019-03-21T09:08:05.771Z,11.10
2019-03-21T09:10:34.426Z,10.45
2019-03-21T09:13:02.990Z,10.53
2019-03-21T09:15:31.434Z,9.70
2019-03-21T09:17:59.823Z,7.65
2019-03-21T09:20:28.188Z,9.97
2019-03-21T09:22:56.595Z,6.22
2019-03-21T09:25:25.151Z,6.95
2019-03-21T09:28:02.192Z,6.42
2019-03-21T09:30:23.751Z,7.28
2019-03-21T09:32:52.123Z,6.17
2019-03-21T09:35:20.542Z,5.47
2019-03-21T09:37:48.913Z,5.70
2019-03-21T09:40:17.351Z,5.87
2019-03-21T09:42:45.670Z,5.15
2019-03-21T09:45:14.067Z,5.07
2019-03-21T09:47:42.458Z,5.53
2019-03-21T09:50:10.849Z,5.08
2019-03-21T09:52:39.225Z,4.50
2019-03-21T09:55:07.611Z,4.37
2019-03-21T09:57:35.985Z,4.83
2019-03-21T10:00:06.716Z,5.25
2019-03-21T10:02:35.064Z,5.47
2019-03-21T10:05:06.225Z,5.17
2019-03-21T10:07:34.593Z,5.05
2019-03-21T10:10:03.482Z,5.33
2019-03-21T10:12:31.882Z,5.08
2019-03-21T10:15:00.303Z,5.37
2019-03-21T10:17:28.780Z,4.33
2019-03-21T10:19:57.216Z,5.05
2019-03-21T10:22:25.578Z,4.66
2019-03-21T10:24:53.972Z,4.30
2019-03-21T10:27:22.358Z,4.40
2019-03-21T10:29:50.814Z,4.83
2019-03-21T10:32:19.202Z,4.30
2019-03-21T10:34:47.588Z,4.67
2019-03-21T10:37:15.949Z,4.08
2019-03-21T10:39:44.374Z,4.87
2019-03-21T10:42:12.721Z,4.40
2019-03-21T10:44:41.201Z,4.60
2019-03-21T10:47:09.657Z,3.80
2019-03-21T10:49:38.034Z,4.33
2019-03-21T10:52:06.397Z,4.60
2019-03-21T10:54:34.887Z,4.08
2019-03-21T10:57:03.812Z,4.62
2019-03-21T10:59:32.174Z,4.90
2019-03-21T11:02:07.153Z,3.76
2019-03-21T11:04:30.610Z,4.30
2019-03-21T11:07:01.130Z,4.00
2019-03-21T11:09:31.512Z,4.20
2019-03-21T11:11:59.898Z,4.00
2019-03-21T11:14:28.689Z,4.17
2019-03-21T11:16:57.322Z,4.60
2019-03-21T11:19:25.698Z,3.57
2019-03-21T11:22:05.639Z,3.98
2019-03-21T11:24:24.134Z,3.60
2019-03-21T11:26:52.530Z,4.08
2019-03-21T11:29:21.292Z,3.16
2019-03-21T11:31:49.705Z,3.15
2019-03-21T11:34:18.011Z,3.30
2019-03-21T11:36:46.397Z,3.40
2019-03-21T11:39:14.798Z,2.92
2019-03-21T11:41:43.197Z,3.50
2019-03-21T11:44:11.559Z,3.15
2019-03-21T11:46:40.112Z,2.92
2019-03-21T11:49:08.521Z,3.50
2019-03-21T11:51:36.940Z,3.70
2019-03-21T11:54:05.375Z,3.60
2019-03-21T11:56:33.820Z,4.45
2019-03-21T11:59:02.182Z,3.53
2019-03-21T12:01:30.658Z,2.75
2019-03-21T12:03:59.107Z,3.77
2019-03-21T12:06:27.498Z,5.00
2019-03-21T12:08:55.939Z,3.65
2019-03-21T12:11:24.346Z,4.33
2019-03-21T12:13:52.714Z,4.35
2019-03-21T12:16:21.162Z,3.95
2019-03-21T12:18:49.585Z,4.67
2019-03-21T12:21:17.957Z,4.50
2019-03-21T12:23:46.347Z,4.80
2019-03-21T12:26:14.915Z,4.08
2019-03-21T12:28:43.316Z,5.12
2019-03-21T12:31:11.681Z,4.85
2019-03-21T12:33:40.005Z,4.50
2019-03-21T12:36:08.315Z,4.00
2019-03-21T12:38:36.777Z,4.70
2019-03-21T12:41:05.149Z,4.05
2019-03-21T12:43:33.526Z,4.75
2019-03-21T12:46:01.841Z,4.67
2019-03-21T12:48:30.228Z,5.53
2019-03-21T12:50:58.629Z,4.65
2019-03-21T12:53:26.986Z,4.03
2019-03-21T12:55:55.332Z,5.07
2019-03-21T12:58:23.729Z,4.50
2019-03-21T13:00:52.158Z,4.33
2019-03-21T13:03:20.542Z,4.65
2019-03-21T13:05:48.986Z,5.00
2019-03-21T13:08:17.440Z,4.40
2019-03-21T13:10:45.986Z,5.08
2019-03-21T13:13:14.363Z,4.58
2019-03-21T13:15:42.822Z,3.92
2019-03-21T13:18:11.294Z,4.37
2019-03-21T13:20:39.603Z,5.00
2019-03-21T13:23:07.997Z,4.67
2019-03-21T13:25:36.371Z,4.72
2019-03-21T13:28:04.940Z,4.92
2019-03-21T13:30:33.485Z,4.58
2019-03-21T13:33:01.805Z,4.83
2019-03-21T13:37:53.991Z,4.60
2019-03-21T13:40:23.224Z,4.17
2019-03-21T13:42:51.589Z,4.67
2019-03-21T13:45:19.941Z,6.20
2019-03-21T13:47:48.348Z,4.22
2019-03-21T13:50:16.732Z,4.47
2019-03-21T13:52:45.143Z,4.70
2019-03-21T13:55:13.638Z,4.75
2019-03-21T13:57:42.179Z,4.55
2019-03-21T14:00:16.107Z,4.87
2019-03-21T14:02:45.353Z,4.37
2019-03-21T14:05:13.833Z,4.60
2019-03-21T14:07:42.431Z,4.17
2019-03-21T14:10:11.121Z,4.55
2019-03-21T14:12:39.701Z,3.85
2019-03-21T14:15:16.435Z,4.62
2019-03-21T14:17:44.736Z,3.90
2019-03-21T14:20:14.667Z,4.33
2019-03-21T14:22:43.035Z,4.07
2019-03-21T14:25:11.466Z,4.22
2019-03-21T14:27:39.894Z,4.10
2019-03-21T14:30:11.008Z,4.53
2019-03-21T14:32:39.514Z,4.17
2019-03-21T14:35:08.095Z,3.90
2019-03-21T14:37:36.532Z,3.33
2019-03-21T14:40:08.197Z,3.85
2019-03-21T14:42:36.600Z,4.13
2019-03-21T14:45:07.161Z,3.95
2019-03-21T14:47:36.486Z,4.05
2019-03-21T14:50:10.757Z,3.83
2019-03-21T14:52:39.149Z,3.58
2019-03-21T14:55:08.500Z,4.72
2019-03-21T14:57:37.109Z,3.65
2019-03-21T15:00:14.113Z,3.75
2019-03-21T15:02:43.207Z,3.62
2019-03-21T15:05:11.633Z,3.50
2019-03-21T15:07:40.023Z,3.67
2019-03-21T15:10:11.272Z,3.62
2019-03-21T15:12:39.639Z,2.80
2019-03-21T15:15:09.970Z,4.08
2019-03-21T15:17:38.510Z,4.15
2019-03-21T15:20:09.470Z,3.23
2019-03-21T15:22:37.938Z,3.95
2019-03-21T15:25:07.774Z,3.60
2019-03-21T15:27:36.575Z,4.20
2019-03-21T15:30:18.668Z,3.47
2019-03-21T15:32:47.299Z,3.00
2019-03-21T15:35:17.012Z,3.12
2019-03-21T15:37:45.314Z,3.55
2019-03-21T15:40:14.828Z,3.77
2019-03-21T15:42:43.391Z,3.30
2019-03-21T15:45:22.778Z,3.65
2019-03-21T15:47:48.495Z,4.50
2019-03-21T15:50:31.305Z,3.80
2019-03-21T15:52:59.633Z,3.95
2019-03-21T15:55:28.717Z,3.90
2019-03-21T15:57:57.207Z,3.22
2019-03-21T16:00:34.145Z,3.45
2019-03-21T16:03:03.569Z,3.47
2019-03-21T16:05:31.959Z,3.67
2019-03-21T16:08:00.515Z,3.83
2019-03-21T16:10:28.911Z,3.72
2019-03-21T16:12:57.279Z,4.07
2019-03-21T16:15:25.679Z,3.70
2019-03-21T16:17:54.064Z,4.03
2019-03-21T16:20:22.522Z,3.40
2019-03-21T16:22:50.938Z,4.37
2019-03-21T16:25:19.365Z,4.80
2019-03-21T16:27:49.349Z,4.35
2019-03-21T16:30:17.774Z,3.40
2019-03-21T16:32:46.153Z,4.53
2019-03-21T16:35:14.523Z,4.50
2019-03-21T16:37:42.924Z,4.25
2019-03-21T16:40:14.536Z,4.17
2019-03-21T16:42:42.970Z,4.37
2019-03-21T16:45:15.753Z,4.17
2019-03-21T16:47:44.197Z,4.07
2019-03-21T16:50:15.449Z,4.50
2019-03-21T16:52:43.755Z,4.03
2019-03-21T16:55:13.764Z,4.37
2019-03-21T16:57:42.493Z,4.20
2019-03-21T17:00:17.741Z,3.92
2019-03-21T17:02:46.982Z,3.97
2019-03-21T17:05:15.357Z,5.70
2019-03-21T17:07:43.738Z,5.47
2019-03-21T17:10:16.001Z,3.90
2019-03-21T17:12:45.004Z,4.75
2019-03-21T17:15:13.705Z,2.80
2019-03-21T17:17:42.104Z,5.00
2019-03-21T17:20:11.697Z,3.10
2019-03-21T17:22:40.089Z,3.60
2019-03-21T17:25:08.506Z,3.52
2019-03-21T17:27:36.840Z,2.95
2019-03-21T17:30:07.558Z,3.62
2019-03-21T17:32:35.947Z,3.35
2019-03-21T17:35:06.115Z,4.55
2019-03-21T17:37:34.489Z,4.28
2019-03-21T17:40:04.013Z,3.55
2019-03-21T17:42:32.396Z,3.37
2019-03-21T17:45:00.863Z,3.25
2019-03-21T17:47:29.758Z,3.40
2019-03-21T17:49:58.161Z,3.90
2019-03-21T17:52:26.530Z,2.87
2019-03-21T17:54:54.925Z,3.70
2019-03-21T17:57:33.981Z,3.87
2019-03-21T17:59:54.214Z,3.67
2019-03-21T18:02:22.702Z,3.85
2019-03-21T18:04:51.138Z,3.22
2019-03-21T18:07:19.524Z,3.77
2019-03-21T18:09:47.966Z,4.55
2019-03-21T18:12:16.262Z,3.80
2019-03-21T18:14:44.662Z,3.42
2019-03-21T18:17:13.030Z,3.42
2019-03-21T18:19:41.412Z,3.55
2019-03-21T18:22:09.784Z,4.40
2019-03-21T18:24:38.172Z,3.52
2019-03-21T18:27:06.538Z,3.95
2019-03-21T18:29:34.959Z,3.67
2019-03-21T18:32:03.539Z,3.92
2019-03-21T18:34:31.879Z,3.87
2019-03-21T18:37:01.193Z,4.22
2019-03-21T18:39:29.584Z,3.80
2019-03-21T18:41:57.907Z,3.62
2019-03-21T18:44:26.281Z,4.37
2019-03-21T18:46:54.591Z,2.83
2019-03-21T18:49:23.005Z,3.63
2019-03-21T18:51:51.487Z,3.65
2019-03-21T18:54:19.937Z,3.58
2019-03-21T18:56:48.383Z,3.55
2019-03-21T18:59:16.769Z,3.00
2019-03-21T19:01:45.098Z,3.50
2019-03-21T19:04:13.466Z,4.55
2019-03-21T19:06:41.857Z,3.80
2019-03-21T19:09:10.301Z,3.60
2019-03-21T19:11:38.690Z,3.17
2019-03-21T19:14:07.158Z,2.87
2019-03-21T19:16:55.557Z,3.50
2019-03-21T19:19:24.041Z,4.25
2019-03-21T19:21:52.423Z,2.80
2019-03-21T19:24:20.958Z,2.67
2019-03-21T19:26:49.343Z,3.64
2019-03-21T19:29:17.741Z,3.30
2019-03-21T19:31:46.088Z,3.80
2019-03-21T19:34:14.485Z,3.20
2019-03-21T19:36:42.899Z,3.05
2019-03-21T19:39:11.294Z,3.40
2019-03-21T19:41:39.694Z,3.00
2019-03-21T19:44:08.059Z,3.65
2019-03-21T19:46:36.485Z,2.60
2019-03-21T19:49:04.872Z,2.83
2019-03-21T19:51:33.349Z,2.80
2019-03-21T19:54:02.970Z,3.00
2019-03-21T19:56:31.264Z,2.77
2019-03-21T19:59:01.156Z,2.60
2019-03-21T20:01:29.769Z,2.72
2019-03-21T20:03:58.139Z,2.70
2019-03-21T20:06:26.502Z,2.26
2019-03-21T20:08:56.886Z,2.80
2019-03-21T20:11:25.182Z,2.25
2019-03-21T20:13:53.560Z,2.47
2019-03-21T20:16:22.026Z,2.27
2019-03-21T20:18:50.488Z,2.33
2019-03-21T20:21:18.886Z,2.22
2019-03-21T20:23:47.256Z,2.40
2019-03-21T20:26:15.649Z,3.40
2019-03-21T20:28:44.243Z,2.55
2019-03-21T20:31:12.698Z,2.20
2019-03-21T20:33:41.147Z,2.52
2019-03-21T20:36:09.625Z,2.50
2019-03-21T20:38:38.041Z,2.40
2019-03-21T20:41:06.497Z,3.15
2019-03-21T20:43:34.951Z,2.50
2019-03-21T20:46:03.366Z,2.75
2019-03-21T20:48:31.365Z,2.67
2019-03-21T20:50:59.744Z,2.70
2019-03-21T20:53:28.133Z,2.90
2019-03-21T20:55:57.665Z,2.15
2019-03-21T20:58:26.039Z,3.40
2019-03-21T21:00:54.440Z,2.70
2019-03-21T21:03:22.893Z,3.12
2019-03-21T21:05:51.275Z,2.92
2019-03-21T21:08:20.213Z,3.00
2019-03-21T21:10:48.645Z,2.20
2019-03-21T21:13:17.036Z,3.05
2019-03-21T21:15:45.420Z,2.83
2019-03-21T21:18:13.732Z,2.42
2019-03-21T21:20:42.132Z,2.57
2019-03-21T21:23:29.941Z,3.30
2019-03-21T21:26:05.446Z,2.42
2019-03-21T21:28:28.685Z,3.08
2019-03-21T21:30:57.141Z,2.20
2019-03-21T21:33:25.513Z,2.75
2019-03-21T21:35:54.001Z,3.12
2019-03-21T21:38:22.345Z,2.62
2019-03-21T21:40:51.139Z,2.92
2019-03-21T21:43:19.529Z,2.80
2019-03-21T21:45:47.895Z,2.90
2019-03-21T21:48:16.290Z,3.47
2019-03-21T21:50:44.625Z,2.80
2019-03-21T21:53:12.972Z,3.47
2019-03-21T21:55:41.420Z,2.75
2019-03-21T21:58:10.206Z,2.85
2019-03-21T22:00:38.582Z,3.33
2019-03-21T22:03:07.046Z,3.25
2019-03-21T22:05:35.516Z,3.40
2019-03-21T22:08:03.952Z,2.62
2019-03-21T22:10:32.360Z,5.23
2019-03-21T22:13:00.667Z,2.67
2019-03-21T22:15:29.049Z,2.67
2019-03-21T22:17:57.427Z,3.05
2019-03-21T22:20:25.822Z,3.27
2019-03-21T22:22:54.193Z,3.25
2019-03-21T22:25:22.622Z,3.08
2019-03-21T22:27:50.990Z,3.70
2019-03-21T22:30:19.725Z,3.77
2019-03-21T22:32:48.111Z,3.40
2019-03-21T22:35:16.505Z,3.10
2019-03-21T22:37:45.319Z,2.95
2019-03-21T22:40:14.906Z,3.05
2019-03-21T22:42:44.475Z,3.12
2019-03-21T22:45:14.018Z,3.00
2019-03-21T22:47:43.174Z,3.40
2019-03-21T22:50:23.890Z,3.10
2019-03-21T22:52:52.266Z,3.10
2019-03-21T22:55:23.023Z,3.05
2019-03-21T22:57:51.442Z,3.50
2019-03-21T23:00:22.099Z,3.33
2019-03-21T23:02:50.580Z,3.52
2019-03-21T23:05:19.056Z,4.03
2019-03-21T23:07:47.412Z,2.62
2019-03-21T23:10:15.886Z,4.17
2019-03-21T23:12:44.205Z,5.22
2019-03-21T23:15:13.019Z,4.25
2019-03-21T23:17:41.403Z,3.40
2019-03-21T23:20:12.013Z,3.72
2019-03-21T23:22:40.493Z,8.05
2019-03-21T23:25:09.388Z,5.35
2019-03-21T23:27:37.751Z,3.40
2019-03-21T23:30:14.689Z,3.77
2019-03-21T23:32:43.074Z,3.63
2019-03-21T23:35:13.384Z,3.22
2019-03-21T23:37:41.943Z,2.80
2019-03-21T23:40:14.521Z,3.12
2019-03-21T23:42:42.983Z,2.97
2019-03-21T23:45:12.277Z,2.85
2019-03-21T23:47:40.844Z,3.00
2019-03-21T23:50:11.590Z,3.57
2019-03-21T23:52:39.974Z,3.15
2019-03-21T23:55:09.339Z,3.23
2019-03-21T23:57:37.705Z,3.08
